createdAt,value
2022-10-15T00:05:10.743Z,14.32
2022-10-15T00:10:42.456Z,14.27
2022-10-15T00:16:14.315Z,14.23
2022-10-15T00:21:46.407Z,14.17
2022-10-15T00:27:18.141Z,14.14
2022-10-15T00:32:49.753Z,14.12
2022-10-15T00:38:21.475Z,14.10
2022-10-15T00:46:15.193Z,13.56
2022-10-15T00:51:46.837Z,13.74
2022-10-15T00:57:18.550Z,13.84
2022-10-15T01:13:48.921Z,13.94
2022-10-15T01:19:20.275Z,13.93
2022-10-15T01:24:52.370Z,13.94
2022-10-15T01:30:24.114Z,13.95
2022-10-15T01:35:56.010Z,13.96
2022-10-15T01:41:27.868Z,13.97
2022-10-15T01:46:59.699Z,13.98
2022-10-15T01:58:03.482Z,14.02
2022-10-15T02:03:35.351Z,14.02
2022-10-15T02:11:29.181Z,13.68
2022-10-15T02:17:01.286Z,13.86
2022-10-15T02:22:34.468Z,13.96
2022-10-15T02:28:06.214Z,14.01
2022-10-15T02:33:37.933Z,14.05
2022-10-15T02:39:09.611Z,14.08
2022-10-15T02:44:41.519Z,14.10
2022-10-15T02:50:13.211Z,14.11
2022-10-15T02:55:45.016Z,14.13
2022-10-15T03:01:16.967Z,14.15
2022-10-15T03:06:48.619Z,14.18
2022-10-15T03:17:52.275Z,14.26
2022-10-15T03:23:24.500Z,14.29
2022-10-15T03:28:56.139Z,14.31
2022-10-15T03:31:19.376Z,13.98
2022-10-15T03:36:51.141Z,14.17
2022-10-15T03:42:23.152Z,14.28
2022-10-15T03:47:54.904Z,14.35
2022-10-15T03:53:26.619Z,14.40
2022-10-15T03:58:58.574Z,14.44
2022-10-15T04:04:30.039Z,14.49
2022-10-15T04:10:02.044Z,14.53
2022-10-15T04:15:33.819Z,14.56
2022-10-15T04:21:05.566Z,14.59
2022-10-15T04:26:37.511Z,14.61
2022-10-15T04:32:09.257Z,14.63
2022-10-15T04:37:41.059Z,14.66
2022-10-15T04:43:13.269Z,14.68
2022-10-15T04:48:44.894Z,14.70
2022-10-15T04:54:17.025Z,14.74
2022-10-15T04:59:51.445Z,14.77
2022-10-15T05:05:20.337Z,14.80
2022-10-15T05:10:52.107Z,14.85
2022-10-15T05:16:24.022Z,14.91
2022-10-15T05:21:55.630Z,14.97
2022-10-15T05:27:27.515Z,15.02
2022-10-15T05:32:59.501Z,15.06
2022-10-15T05:38:31.247Z,15.11
2022-10-15T05:44:03.180Z,15.14
2022-10-15T05:49:34.799Z,15.15
2022-10-15T05:55:06.494Z,15.17
2022-10-15T06:00:38.236Z,15.19
2022-10-15T06:06:09.778Z,15.21
2022-10-15T06:11:41.709Z,15.24
2022-10-15T06:17:13.441Z,15.27
2022-10-15T06:22:45.406Z,15.29
2022-10-15T06:28:17.040Z,15.32
2022-10-15T06:33:48.797Z,15.34
2022-10-15T06:39:20.421Z,15.36
2022-10-15T06:44:52.419Z,15.37
2022-10-15T06:50:24.391Z,15.41
2022-10-15T06:55:56.221Z,15.45
2022-10-15T07:01:28.044Z,15.50
2022-10-15T07:06:59.666Z,15.56
2022-10-15T07:12:31.753Z,15.63
2022-10-15T07:18:03.413Z,15.71
2022-10-15T07:23:35.020Z,15.80
2022-10-15T07:29:06.618Z,15.90
2022-10-15T07:34:38.320Z,16.00
2022-10-15T07:40:10.276Z,16.09
2022-10-15T07:45:42.056Z,16.16
2022-10-15T07:51:13.863Z,16.24
2022-10-15T07:56:45.222Z,16.33
2022-10-15T08:02:16.998Z,16.42
2022-10-15T08:13:18.006Z,16.54
2022-10-15T08:18:49.732Z,16.59
2022-10-15T08:24:21.499Z,16.62
2022-10-15T08:29:53.206Z,16.65
2022-10-15T08:35:25.054Z,16.67
2022-10-15T08:40:56.742Z,16.72
2022-10-15T08:46:28.618Z,16.77
2022-10-15T08:52:00.298Z,16.77
2022-10-15T09:03:03.752Z,16.69
2022-10-15T09:08:36.017Z,16.61
2022-10-15T09:14:10.272Z,16.51
2022-10-15T09:36:19.834Z,16.62
2022-10-15T09:41:51.397Z,16.69
2022-10-15T09:47:23.378Z,16.82
2022-10-15T09:52:55.109Z,17.07
2022-10-15T09:58:26.911Z,17.42
2022-10-15T10:09:30.309Z,18.25
2022-10-15T10:20:34.426Z,18.92
2022-10-15T10:26:06.069Z,19.27
2022-10-15T10:31:37.918Z,19.63
2022-10-15T10:37:09.707Z,19.95
2022-10-15T10:42:41.356Z,20.17
2022-10-15T10:48:13.184Z,20.35
2022-10-15T10:53:44.985Z,20.51
2022-10-15T10:59:16.902Z,20.63
2022-10-15T11:07:09.089Z,20.92
2022-10-15T11:12:40.966Z,21.09
2022-10-15T11:18:13.023Z,21.22
2022-10-15T11:23:45.031Z,21.36
2022-10-15T11:29:16.732Z,21.43
2022-10-15T11:34:48.622Z,21.42
2022-10-15T11:40:20.511Z,21.38
2022-10-15T11:45:52.283Z,21.31
2022-10-15T11:51:23.590Z,21.23
2022-10-15T11:56:55.211Z,21.19
2022-10-15T12:02:27.061Z,21.17
2022-10-15T12:07:58.976Z,21.21
2022-10-15T12:13:30.355Z,21.24
2022-10-15T12:19:02.508Z,21.22
2022-10-15T12:24:34.415Z,21.13
2022-10-15T12:30:06.267Z,21.01
2022-10-15T12:35:38.273Z,20.90
2022-10-15T12:41:09.821Z,20.87
2022-10-15T12:46:41.508Z,20.80
2022-10-15T12:52:13.562Z,20.71
2022-10-15T12:57:45.080Z,20.59
2022-10-15T13:03:16.764Z,20.48
2022-10-15T13:08:48.284Z,20.47
2022-10-15T13:14:19.910Z,20.55
2022-10-15T13:19:51.321Z,20.63
2022-10-15T13:25:23.413Z,20.70
2022-10-15T13:30:56.349Z,20.75
2022-10-15T13:36:28.265Z,20.75
2022-10-15T13:41:59.902Z,20.73
2022-10-15T13:47:33.492Z,20.65
2022-10-15T13:53:05.172Z,20.59
2022-10-15T13:58:36.754Z,20.56
2022-10-15T14:04:08.864Z,20.58
2022-10-15T14:09:40.626Z,20.62
2022-10-15T14:15:17.821Z,20.63
2022-10-15T14:20:51.433Z,20.63
2022-10-15T14:26:22.852Z,20.60
2022-10-15T14:31:54.551Z,20.55
2022-10-15T14:37:26.327Z,20.53
2022-10-15T14:42:58.149Z,20.52
2022-10-15T14:48:29.756Z,20.52
2022-10-15T14:54:01.653Z,20.57
2022-10-15T14:59:33.644Z,20.68
2022-10-15T15:05:05.682Z,20.77
2022-10-15T15:10:38.372Z,20.77
2022-10-15T15:16:09.940Z,20.68
2022-10-15T15:21:41.751Z,20.55
2022-10-15T15:27:13.399Z,20.41
2022-10-15T15:32:45.286Z,20.35
2022-10-15T15:38:17.117Z,20.32
2022-10-15T15:43:48.804Z,20.28
2022-10-15T15:49:20.611Z,20.25
2022-10-15T15:54:52.354Z,20.23
2022-10-15T16:00:24.103Z,20.22
2022-10-15T16:05:56.060Z,20.23
2022-10-15T16:11:27.762Z,20.23
2022-10-15T16:16:59.876Z,20.21
2022-10-15T16:22:31.717Z,20.18
2022-10-15T16:28:03.368Z,20.18
2022-10-15T16:33:35.158Z,20.18
2022-10-15T16:39:06.828Z,20.16
2022-10-15T16:44:38.837Z,20.10
2022-10-15T16:50:10.754Z,20.02
2022-10-15T16:55:42.440Z,19.93
2022-10-15T17:01:13.972Z,19.86
2022-10-15T17:12:15.349Z,19.61
2022-10-15T17:17:47.222Z,19.44
2022-10-15T17:23:18.964Z,19.26
2022-10-15T17:28:50.828Z,19.09
2022-10-15T17:34:22.722Z,18.93
2022-10-15T17:39:54.754Z,18.78
2022-10-15T17:45:26.355Z,18.64
2022-10-15T17:50:58.140Z,18.50
2022-10-15T18:02:00.351Z,18.24
2022-10-15T18:07:31.111Z,18.14
2022-10-15T18:13:03.742Z,18.08
2022-10-15T18:18:35.383Z,18.03
2022-10-15T18:24:07.241Z,17.99
2022-10-15T18:29:39.132Z,17.95
2022-10-15T18:35:11.137Z,17.93
2022-10-15T18:40:42.802Z,17.90
2022-10-15T18:46:14.531Z,17.89
2022-10-15T18:51:46.884Z,17.87
2022-10-15T18:57:18.970Z,17.87
2022-10-15T19:02:50.759Z,17.86
2022-10-15T19:08:22.435Z,17.83
2022-10-15T19:13:54.006Z,17.79
2022-10-15T19:19:25.650Z,17.74
2022-10-15T19:24:57.435Z,17.68
2022-10-15T19:30:29.357Z,17.61
2022-10-15T19:36:00.943Z,17.54
2022-10-15T19:41:32.732Z,17.45
2022-10-15T19:47:04.665Z,17.37
2022-10-15T19:52:36.546Z,17.29
2022-10-15T19:58:08.001Z,17.23
2022-10-15T20:03:39.686Z,17.18
2022-10-15T20:09:11.580Z,17.14
2022-10-15T20:14:43.282Z,17.12
2022-10-15T20:20:15.282Z,17.11
2022-10-15T20:25:48.190Z,17.12
2022-10-15T20:31:20.228Z,17.11
2022-10-15T20:36:51.870Z,17.10
2022-10-15T20:53:29.122Z,17.04
2022-10-15T20:59:00.778Z,16.99
2022-10-15T21:10:02.204Z,16.89
2022-10-15T21:15:33.892Z,16.84
2022-10-15T21:26:38.601Z,16.74
2022-10-15T21:32:10.376Z,16.70
2022-10-15T21:37:42.019Z,16.65
2022-10-15T21:48:45.662Z,16.51
2022-10-15T21:54:17.326Z,16.43
2022-10-15T21:59:48.900Z,16.34
2022-10-15T22:05:20.810Z,16.23
2022-10-15T22:10:52.527Z,16.14
2022-10-15T22:16:24.437Z,16.06
2022-10-15T22:21:56.144Z,15.99
2022-10-15T22:27:27.966Z,15.93
2022-10-15T22:32:59.722Z,15.88
2022-10-15T22:38:31.485Z,15.83
2022-10-15T22:44:03.321Z,15.77
2022-10-15T22:49:35.323Z,15.72
2022-10-15T22:55:06.868Z,15.67
2022-10-15T23:00:38.618Z,15.60
2022-10-15T23:06:10.423Z,15.53
2022-10-15T23:11:42.066Z,15.46
2022-10-15T23:17:13.918Z,15.37
2022-10-15T23:22:45.878Z,15.29
2022-10-15T23:28:17.992Z,15.20
2022-10-15T23:33:49.888Z,15.10
2022-10-15T23:39:21.626Z,15.00
2022-10-15T23:44:53.272Z,14.90
2022-10-15T23:50:25.147Z,14.80
2022-10-15T23:55:57.171Z,14.71
